Terminal Aerodrome Forecast
Issued by NWS Louisville, KY

Home | Current Version | Previous Version | Text Only | Print | Product List | Glossary On
Versions: 1 2 3 4 5 6 7 8 9 10 11 12 13 14 15 16 17 18 19
246
FTUS43 KLMK 191723
TAFSDF
TAF
KSDF 191723Z 1918/2024 24004KT P6SM BKN015
      TEMPO 1922/2002 SCT018
     FM200200 VRB03KT P6SM SCT020 SCT200
      TEMPO 2006/2009 5SM BR SCT015 BKN200
     FM200900 VRB03KT 3SM BR BKN015
     FM201400 12005KT P6SM FEW015 BKN200=

USA.gov is the U.S. government's official web portal to all federal, state and local government web resources and services.